Time;durP1;ratioP1;P1;durP2;ratioP2;P2;SDS_P1;SDS_P2;PMS_P1;PMS_P2;Temp;Humidity;BMP_temperature;BMP_pressure;BME280_temperature;BME280_humidity;BME280_pressure;Samples;Min_cycle;Max_cycle;Signal;HPM_P1;HPM_P2
2023/12/14 00:01:11;;;;;;;13.93;6.18;;;9.00;99.90;;;;;;5118953;28;20046;-62
2023/12/14 00:03:36;;;;;;;12.75;6.28;;;9.00;99.90;;;;;;5119148;28;20035;-62
2023/12/14 00:06:02;;;;;;;14.32;6.22;;;9.00;99.90;;;;;;5118943;28;20032;-63
2023/12/14 00:08:28;;;;;;;14.30;6.38;;;9.00;99.90;;;;;;5119087;28;20034;-62
2023/12/14 00:10:53;;;;;;;14.75;6.13;;;9.00;99.90;;;;;;5117970;28;20032;-62
2023/12/14 00:13:19;;;;;;;13.93;6.18;;;9.00;99.90;;;;;;5118832;28;20293;-62
2023/12/14 00:15:45;;;;;;;14.77;6.30;;;9.00;99.90;;;;;;5118909;28;20032;-64
2023/12/14 00:18:10;;;;;;;13.70;5.88;;;9.00;99.90;;;;;;5118984;28;20123;-63
2023/12/14 00:20:36;;;;;;;13.68;6.10;;;9.00;99.90;;;;;;5118844;28;20035;-63
2023/12/14 00:23:01;;;;;;;12.73;5.75;;;9.00;99.90;;;;;;5118907;28;20028;-63
2023/12/14 00:25:27;;;;;;;14.90;6.07;;;9.00;99.90;;;;;;5118984;28;20028;-63
2023/12/14 00:27:53;;;;;;;16.52;6.68;;;8.90;99.90;;;;;;5118953;28;20027;-63
2023/12/14 00:30:18;;;;;;;16.25;6.55;;;8.80;99.90;;;;;;5118574;28;20050;-62
2023/12/14 00:32:44;;;;;;;15.43;7.03;;;8.80;99.90;;;;;;5118696;28;20032;-63
2023/12/14 00:35:09;;;;;;;17.67;7.32;;;8.70;99.90;;;;;;5118875;28;20025;-62
2023/12/14 00:37:35;;;;;;;16.13;7.20;;;8.70;99.90;;;;;;5118827;28;20028;-62
2023/12/14 00:40:00;;;;;;;14.02;6.55;;;8.60;99.90;;;;;;5118763;28;20032;-61
2023/12/14 00:42:26;;;;;;;14.23;6.63;;;8.60;99.90;;;;;;5118472;28;20057;-63
2023/12/14 00:44:52;;;;;;;15.00;7.20;;;8.60;99.90;;;;;;5118763;28;20055;-62
2023/12/14 00:47:17;;;;;;;17.38;7.30;;;8.60;99.90;;;;;;5118735;28;20028;-62
2023/12/14 00:49:43;;;;;;;16.58;7.25;;;8.50;99.90;;;;;;5118787;28;20032;-62
2023/12/14 00:52:08;;;;;;;16.23;6.93;;;8.60;99.90;;;;;;5115830;28;20036;-62
2023/12/14 00:54:34;;;;;;;17.38;7.78;;;8.60;99.90;;;;;;5115453;28;20032;-62
2023/12/14 00:56:59;;;;;;;14.95;6.25;;;8.60;99.90;;;;;;5115347;28;20032;-63
2023/12/14 00:59:25;;;;;;;14.98;6.20;;;8.60;99.90;;;;;;5115216;28;20020;-62
2023/12/14 01:01:51;;;;;;;13.82;6.50;;;8.60;99.90;;;;;;5115455;28;20417;-62
2023/12/14 01:04:16;;;;;;;13.80;6.30;;;8.60;99.90;;;;;;5115277;28;20048;-63
2023/12/14 01:06:42;;;;;;;17.48;7.13;;;8.50;99.90;;;;;;5115233;28;20559;-63
2023/12/14 01:09:08;;;;;;;14.45;6.53;;;8.50;99.90;;;;;;5115154;28;20111;-62
2023/12/14 01:11:33;;;;;;;16.15;7.18;;;8.50;99.90;;;;;;5115151;28;20035;-62
2023/12/14 01:13:59;;;;;;;15.73;7.15;;;8.40;99.90;;;;;;5115020;28;20032;-62
2023/12/14 01:16:27;;;;;;;16.77;7.97;;;8.40;99.90;;;;;;5115039;28;20032;-62
2023/12/14 01:18:53;;;;;;;15.00;7.15;;;8.40;99.90;;;;;;5115037;28;20070;-62
2023/12/14 01:21:18;;;;;;;18.75;7.68;;;8.40;99.90;;;;;;5114836;28;20024;-63
2023/12/14 01:23:44;;;;;;;15.40;6.78;;;8.30;99.90;;;;;;5115038;28;20092;-62
2023/12/14 01:26:09;;;;;;;17.40;7.75;;;8.30;99.90;;;;;;5114851;28;20035;-62
2023/12/14 01:28:35;;;;;;;20.92;8.13;;;8.30;99.90;;;;;;5114818;28;20036;-62
2023/12/14 01:31:00;;;;;;;17.27;7.28;;;8.30;99.90;;;;;;5114562;28;20115;-64
2023/12/14 01:33:26;;;;;;;17.83;7.15;;;8.30;99.90;;;;;;5114646;28;20036;-62
2023/12/14 01:35:52;;;;;;;19.23;7.65;;;8.20;99.90;;;;;;5114666;28;20027;-63
2023/12/14 01:38:17;;;;;;;19.65;7.72;;;8.20;99.90;;;;;;5114536;28;20028;-62
2023/12/14 01:40:43;;;;;;;18.30;7.32;;;8.30;99.90;;;;;;5114597;28;20031;-63
2023/12/14 01:43:10;;;;;;;18.08;7.82;;;8.20;99.90;;;;;;5114233;28;20055;-62
2023/12/14 01:45:36;;;;;;;19.90;8.02;;;8.20;99.90;;;;;;5114376;28;20031;-63
2023/12/14 01:48:02;;;;;;;18.98;7.78;;;8.20;99.90;;;;;;5114396;28;20048;-61
2023/12/14 01:50:28;;;;;;;14.73;6.80;;;8.20;99.90;;;;;;5114422;28;20054;-62
2023/12/14 01:52:53;;;;;;;17.88;7.35;;;8.20;99.90;;;;;;5114230;28;20042;-62
2023/12/14 01:55:19;;;;;;;15.05;6.45;;;8.20;99.90;;;;;;5113182;28;20028;-63
2023/12/14 01:57:44;;;;;;;15.30;6.75;;;8.20;99.90;;;;;;5114180;28;20083;-61
2023/12/14 02:00:25;;;;;;;15.82;6.47;;;8.20;99.90;;;;;;5113999;28;20028;-62
2023/12/14 02:02:51;;;;;;;17.85;6.55;;;8.20;99.90;;;;;;5113965;28;20024;-64
2023/12/14 02:05:17;;;;;;;17.08;7.45;;;8.20;99.90;;;;;;5114119;28;20466;-62
2023/12/14 02:07:42;;;;;;;19.10;6.68;;;8.20;99.90;;;;;;5114114;28;20026;-61
2023/12/14 02:10:08;;;;;;;14.90;7.05;;;8.20;99.90;;;;;;5114024;28;20462;-62
2023/12/14 02:12:34;;;;;;;15.13;6.40;;;8.20;99.90;;;;;;5114015;28;20031;-63
2023/12/14 02:14:59;;;;;;;16.77;6.47;;;8.20;99.90;;;;;;5113841;28;20068;-63
2023/12/14 02:17:25;;;;;;;16.25;6.82;;;8.20;99.90;;;;;;5113720;28;20028;-63
2023/12/14 02:19:50;;;;;;;17.30;6.95;;;8.20;99.90;;;;;;5113815;28;20043;-62
2023/12/14 02:22:17;;;;;;;17.77;7.50;;;8.20;99.90;;;;;;5113793;28;20020;-62
2023/12/14 02:24:43;;;;;;;16.60;7.03;;;8.20;99.90;;;;;;5113572;28;20030;-62
2023/12/14 02:27:08;;;;;;;16.05;6.60;;;8.20;99.90;;;;;;5113687;28;20032;-62
2023/12/14 02:29:34;;;;;;;16.77;6.85;;;8.20;99.90;;;;;;5112495;28;20045;-62
2023/12/14 02:32:00;;;;;;;15.38;7.47;;;8.20;99.90;;;;;;5113601;28;20028;-62
2023/12/14 02:34:25;;;;;;;18.92;6.13;;;8.20;99.90;;;;;;5113552;28;20058;-63
2023/12/14 02:36:51;;;;;;;17.52;6.45;;;8.20;99.90;;;;;;5113476;28;20084;-62
2023/12/14 02:39:16;;;;;;;18.40;7.40;;;8.20;99.90;;;;;;5113399;28;20027;-62
2023/12/14 02:41:42;;;;;;;15.43;6.45;;;8.20;99.90;;;;;;5113435;28;20028;-62
2023/12/14 02:44:08;;;;;;;15.70;6.53;;;8.20;99.90;;;;;;5113269;28;20070;-62
2023/12/14 02:46:33;;;;;;;16.75;6.97;;;8.20;99.90;;;;;;5112225;28;20035;-63
2023/12/14 02:48:59;;;;;;;17.83;7.45;;;8.20;99.90;;;;;;5113271;28;20052;-65
2023/12/14 02:51:24;;;;;;;20.10;8.35;;;8.20;99.90;;;;;;5113235;28;20119;-62
2023/12/14 02:53:50;;;;;;;18.08;7.65;;;8.20;99.90;;;;;;5113084;28;20048;-63
2023/12/14 02:56:16;;;;;;;16.00;6.70;;;8.20;99.90;;;;;;5113154;28;20035;-63
2023/12/14 02:58:41;;;;;;;16.77;6.75;;;8.10;99.90;;;;;;5113085;28;20044;-62
2023/12/14 03:01:07;;;;;;;14.93;6.47;;;8.10;99.90;;;;;;5112944;28;20047;-61
2023/12/14 03:03:33;;;;;;;17.83;7.68;;;8.10;99.90;;;;;;5112946;28;20051;-62
2023/12/14 03:05:58;;;;;;;16.95;7.35;;;8.10;99.90;;;;;;5113040;28;20079;-63
2023/12/14 03:08:24;;;;;;;16.98;7.65;;;8.10;99.90;;;;;;5112887;28;20478;-62
2023/12/14 03:10:49;;;;;;;15.98;7.00;;;8.10;99.90;;;;;;5112953;28;20036;-62
2023/12/14 03:13:15;;;;;;;12.90;6.38;;;8.00;99.90;;;;;;5112842;28;20051;-62
2023/12/14 03:15:43;;;;;;;16.25;7.00;;;8.00;99.90;;;;;;5111206;28;20035;-61
2023/12/14 03:18:08;;;;;;;15.90;7.25;;;7.90;99.90;;;;;;5112803;28;20016;-62
2023/12/14 03:20:34;;;;;;;17.30;7.22;;;7.90;99.90;;;;;;5112678;28;20024;-63
2023/12/14 03:22:59;;;;;;;14.10;6.93;;;8.00;99.90;;;;;;5112652;28;20034;-63
2023/12/14 03:25:25;;;;;;;17.27;7.00;;;8.00;99.90;;;;;;5112740;28;20012;-62
2023/12/14 03:27:50;;;;;;;15.68;6.95;;;8.00;99.90;;;;;;5112716;28;20030;-61
2023/12/14 03:30:16;;;;;;;17.23;6.78;;;8.00;99.90;;;;;;5112458;28;20035;-62
2023/12/14 03:32:42;;;;;;;13.38;6.28;;;8.00;99.90;;;;;;5112605;28;20051;-61
2023/12/14 03:35:08;;;;;;;17.08;7.05;;;8.00;99.90;;;;;;5112521;28;20177;-62
2023/12/14 03:37:34;;;;;;;14.30;6.22;;;7.90;99.90;;;;;;5111411;28;20056;-63
2023/12/14 03:39:59;;;;;;;16.40;6.82;;;7.90;99.90;;;;;;5112589;28;20046;-63
2023/12/14 03:42:25;;;;;;;16.95;7.15;;;7.80;99.90;;;;;;5112339;28;20035;-62
2023/12/14 03:44:50;;;;;;;17.70;7.25;;;7.80;99.90;;;;;;5101388;28;20039;-61
2023/12/14 03:47:16;;;;;;;14.32;6.90;;;7.80;99.90;;;;;;5092029;28;20047;-63
2023/12/14 03:49:42;;;;;;;15.23;6.78;;;7.80;99.90;;;;;;5092165;28;20028;-63
2023/12/14 03:52:09;;;;;;;17.85;7.50;;;7.80;99.90;;;;;;5092102;28;20037;-62
2023/12/14 03:54:35;;;;;;;16.38;6.63;;;7.80;99.90;;;;;;5092003;28;20029;-65
2023/12/14 03:57:00;;;;;;;18.67;7.72;;;7.80;99.90;;;;;;5092217;28;20048;-63
2023/12/14 03:59:26;;;;;;;16.90;8.07;;;7.80;99.90;;;;;;5091329;28;20037;-62
2023/12/14 04:01:51;;;;;;;16.17;7.28;;;7.80;99.90;;;;;;5092111;28;20051;-63
2023/12/14 04:04:17;;;;;;;14.18;6.72;;;7.70;99.90;;;;;;5092019;28;20036;-62
2023/12/14 04:06:43;;;;;;;15.75;7.35;;;7.70;99.90;;;;;;5091853;28;20044;-63
2023/12/14 04:09:09;;;;;;;17.10;7.25;;;7.70;99.90;;;;;;5091932;28;20037;-63
2023/12/14 04:11:35;;;;;;;15.85;7.28;;;7.70;99.90;;;;;;5091896;28;20040;-62
2023/12/14 04:14:01;;;;;;;15.30;7.10;;;7.70;99.90;;;;;;5091985;28;20032;-63
2023/12/14 04:16:26;;;;;;;14.30;7.45;;;7.70;99.90;;;;;;5091878;28;20090;-62
2023/12/14 04:18:52;;;;;;;13.73;6.63;;;7.80;99.90;;;;;;5092013;28;20088;-62
2023/12/14 04:21:18;;;;;;;16.70;7.38;;;7.80;99.90;;;;;;5091785;28;20032;-63
2023/12/14 04:23:45;;;;;;;16.77;7.50;;;7.80;99.90;;;;;;5091929;28;20043;-63
2023/12/14 04:26:11;;;;;;;18.08;7.47;;;7.80;99.90;;;;;;5091888;28;20020;-63
2023/12/14 04:28:36;;;;;;;17.13;7.40;;;7.80;99.90;;;;;;5095183;28;20044;-62
2023/12/14 04:31:02;;;;;;;16.20;7.00;;;7.80;99.90;;;;;;5095371;28;20110;-63
2023/12/14 04:33:28;;;;;;;15.10;6.80;;;7.80;99.90;;;;;;5095456;28;20382;-63
2023/12/14 04:35:53;;;;;;;15.75;7.20;;;7.80;99.90;;;;;;5095474;28;20031;-62
2023/12/14 04:38:19;;;;;;;16.02;7.90;;;7.90;99.90;;;;;;5095434;28;20035;-63
2023/12/14 04:40:44;;;;;;;15.38;7.00;;;7.90;99.90;;;;;;5094340;28;20020;-63
2023/12/14 04:43:10;;;;;;;15.43;6.53;;;7.90;99.90;;;;;;5095040;28;20626;-63
2023/12/14 04:45:36;;;;;;;14.55;6.63;;;7.90;99.90;;;;;;5095253;28;20092;-62
2023/12/14 04:48:01;;;;;;;14.38;6.93;;;7.90;99.90;;;;;;5095252;28;20040;-63
2023/12/14 04:50:27;;;;;;;15.63;7.03;;;7.90;99.90;;;;;;5095194;28;20327;-62
2023/12/14 04:52:53;;;;;;;15.30;6.63;;;7.80;99.90;;;;;;5094110;28;20025;-63
2023/12/14 04:55:18;;;;;;;14.88;7.03;;;7.80;99.90;;;;;;5095173;28;20021;-61
2023/12/14 04:57:46;;;;;;;13.75;6.15;;;7.80;99.90;;;;;;5095070;28;20085;-61
2023/12/14 05:00:12;;;;;;;15.23;6.40;;;7.80;99.90;;;;;;5094866;28;20032;-62
2023/12/14 05:02:38;;;;;;;13.05;6.15;;;7.80;99.90;;;;;;5094960;28;20482;-62
2023/12/14 05:05:04;;;;;;;15.95;7.03;;;7.80;99.90;;;;;;5094933;28;20035;-62
2023/12/14 05:07:30;;;;;;;13.40;6.55;;;7.80;99.90;;;;;;5094985;28;20032;-63
2023/12/14 05:09:56;;;;;;;13.02;6.55;;;7.80;99.90;;;;;;5094956;28;20025;-62
2023/12/14 05:12:22;;;;;;;15.38;7.07;;;7.70;99.90;;;;;;5094841;28;20038;-61
2023/12/14 05:14:47;;;;;;;14.32;6.57;;;7.60;99.90;;;;;;5094775;28;20036;-62
2023/12/14 05:17:13;;;;;;;11.38;6.25;;;7.70;99.90;;;;;;5094575;28;20170;-62
2023/12/14 05:19:39;;;;;;;14.07;6.93;;;7.70;99.90;;;;;;5094566;28;20031;-61
2023/12/14 05:22:04;;;;;;;12.88;6.32;;;7.70;99.90;;;;;;5094617;28;20032;-63
2023/12/14 05:24:30;;;;;;;13.05;6.53;;;7.70;99.90;;;;;;5094659;28;20020;-61
2023/12/14 05:26:55;;;;;;;13.30;6.55;;;7.70;99.90;;;;;;5094619;28;20057;-62
2023/12/14 05:29:21;;;;;;;13.05;6.38;;;7.70;99.90;;;;;;5094400;28;20035;-64
2023/12/14 05:31:47;;;;;;;11.80;6.13;;;7.70;99.90;;;;;;5094487;28;20033;-62
2023/12/14 05:34:14;;;;;;;14.35;6.70;;;7.70;99.90;;;;;;5094374;28;20055;-61
2023/12/14 05:36:39;;;;;;;14.52;6.63;;;7.60;99.90;;;;;;5094430;28;20080;-62
2023/12/14 05:39:05;;;;;;;12.25;6.30;;;7.60;99.90;;;;;;5093864;28;20032;-62
2023/12/14 05:41:30;;;;;;;15.25;6.50;;;7.60;99.90;;;;;;5094229;28;20020;-62
2023/12/14 05:43:57;;;;;;;13.65;6.07;;;7.60;99.90;;;;;;5094101;28;20060;-63
2023/12/14 05:46:24;;;;;;;14.73;6.90;;;7.50;99.90;;;;;;5094076;28;20029;-62
2023/12/14 05:48:50;;;;;;;14.88;6.35;;;7.50;99.90;;;;;;5094029;28;20104;-61
2023/12/14 05:51:32;;;;;;;13.32;6.88;;;7.50;99.90;;;;;;5094116;28;20028;-62
2023/12/14 05:53:58;;;;;;;13.57;6.95;;;7.50;99.90;;;;;;5094050;28;20037;-63
2023/12/14 05:56:26;;;;;;;16.15;6.10;;;7.50;99.90;;;;;;5093988;28;20043;-64
2023/12/14 05:58:51;;;;;;;13.77;6.32;;;7.50;99.90;;;;;;5093950;28;20137;-66
2023/12/14 06:01:18;;;;;;;12.30;5.95;;;7.50;99.90;;;;;;5093654;28;20481;-64
2023/12/14 06:03:44;;;;;;;16.02;6.18;;;7.50;99.90;;;;;;5093884;28;20057;-63
2023/12/14 06:06:09;;;;;;;12.88;6.68;;;7.50;99.90;;;;;;5093809;28;20032;-63
2023/12/14 06:08:35;;;;;;;15.27;7.13;;;7.50;99.90;;;;;;5093759;28;20114;-64
2023/12/14 06:11:01;;;;;;;14.27;6.15;;;7.50;99.90;;;;;;5093764;28;20028;-63
2023/12/14 06:13:26;;;;;;;14.30;7.07;;;7.50;99.90;;;;;;5093692;28;20450;-65
2023/12/14 06:15:52;;;;;;;15.27;7.18;;;7.50;99.90;;;;;;5093518;28;20038;-63
2023/12/14 06:18:17;;;;;;;15.85;7.15;;;7.50;99.90;;;;;;5093609;28;20025;-64
2023/12/14 06:20:43;;;;;;;16.05;7.22;;;7.50;99.90;;;;;;5093500;28;20056;-63
2023/12/14 06:23:08;;;;;;;16.00;7.88;;;7.50;99.90;;;;;;5093480;28;20031;-62
2023/12/14 06:25:34;;;;;;;15.50;7.57;;;7.50;99.90;;;;;;5093469;28;20056;-64
2023/12/14 06:28:00;;;;;;;14.95;6.65;;;7.50;99.90;;;;;;5093345;28;20052;-64
2023/12/14 06:30:25;;;;;;;16.90;7.15;;;7.50;99.90;;;;;;5093055;28;20021;-65
2023/12/14 06:32:51;;;;;;;14.05;6.85;;;7.50;99.90;;;;;;5092374;28;20020;-64
2023/12/14 06:35:16;;;;;;;16.92;7.82;;;7.50;99.90;;;;;;5093192;28;20040;-62
2023/12/14 06:37:42;;;;;;;15.93;7.18;;;7.40;99.90;;;;;;5093256;28;20028;-62
2023/12/14 06:40:09;;;;;;;17.02;7.95;;;7.40;99.90;;;;;;5093104;28;20029;-63
2023/12/14 06:42:34;;;;;;;17.73;7.55;;;7.40;99.90;;;;;;5093052;28;20029;-63
2023/12/14 06:45:02;;;;;;;15.30;6.78;;;7.50;99.90;;;;;;5092767;28;20061;-63
2023/12/14 06:47:28;;;;;;;15.43;7.20;;;7.50;99.90;;;;;;5093028;28;20025;-63
2023/12/14 06:49:55;;;;;;;19.25;7.68;;;7.50;99.90;;;;;;5092144;28;20498;-62
2023/12/14 06:52:21;;;;;;;18.85;7.63;;;7.40;99.90;;;;;;5092997;28;20031;-64
2023/12/14 06:54:47;;;;;;;15.18;6.45;;;7.40;99.90;;;;;;5092848;28;20021;-63
2023/12/14 06:57:12;;;;;;;16.55;7.47;;;7.40;99.90;;;;;;5092852;28;20024;-62
2023/12/14 06:59:38;;;;;;;15.02;7.05;;;7.40;99.90;;;;;;5092606;28;20035;-62
2023/12/14 07:02:04;;;;;;;13.63;6.57;;;7.40;99.90;;;;;;5093636;28;20020;-61
2023/12/14 07:04:29;;;;;;;15.02;6.57;;;7.40;99.90;;;;;;5111900;28;20518;-64
2023/12/14 07:06:55;;;;;;;13.55;6.45;;;7.50;99.90;;;;;;5111157;28;20035;-64
2023/12/14 07:09:20;;;;;;;15.32;6.85;;;7.50;99.90;;;;;;5112311;28;20043;-62
2023/12/14 07:11:46;;;;;;;15.30;6.28;;;7.50;99.90;;;;;;5112709;28;20043;-65
2023/12/14 07:14:13;;;;;;;13.77;6.38;;;7.50;99.90;;;;;;5110503;28;20032;-63
2023/12/14 07:16:39;;;;;;;13.43;6.03;;;7.50;99.90;;;;;;5112405;28;20021;-63
2023/12/14 07:19:04;;;;;;;12.85;6.13;;;7.50;99.90;;;;;;5112301;28;20035;-63
2023/12/14 07:21:30;;;;;;;13.13;5.93;;;7.50;99.90;;;;;;5112599;28;20032;-63
2023/12/14 07:23:55;;;;;;;15.27;5.95;;;7.40;99.90;;;;;;5112776;28;20039;-63
2023/12/14 07:26:21;;;;;;;13.65;6.30;;;7.40;99.90;;;;;;5112710;28;20035;-63
2023/12/14 07:28:46;;;;;;;14.38;6.25;;;7.40;99.90;;;;;;5112683;28;20061;-63
2023/12/14 07:31:12;;;;;;;13.18;6.57;;;7.40;99.90;;;;;;5112458;28;20028;-63
2023/12/14 07:33:38;;;;;;;13.00;6.15;;;7.40;99.90;;;;;;5112514;28;20054;-63
2023/12/14 07:36:05;;;;;;;12.00;5.53;;;7.40;99.90;;;;;;5112590;28;20035;-65
2023/12/14 07:38:31;;;;;;;14.32;6.65;;;7.30;99.90;;;;;;5112573;28;20402;-63
2023/12/14 07:40:57;;;;;;;13.05;5.80;;;7.30;99.90;;;;;;5112608;28;20028;-62
2023/12/14 07:43:23;;;;;;;12.18;5.93;;;7.30;99.90;;;;;;5112407;28;20052;-62
2023/12/14 07:45:48;;;;;;;13.15;5.95;;;7.30;99.90;;;;;;5112534;28;20059;-63
2023/12/14 07:48:14;;;;;;;13.45;5.80;;;7.30;99.90;;;;;;5112502;28;20493;-62
2023/12/14 07:50:40;;;;;;;11.80;5.80;;;7.30;99.90;;;;;;5112455;28;20088;-63
2023/12/14 07:53:05;;;;;;;15.50;5.28;;;7.30;99.90;;;;;;5112393;28;20058;-62
2023/12/14 07:55:31;;;;;;;11.73;5.50;;;7.30;99.90;;;;;;5112399;28;20057;-62
2023/12/14 07:57:57;;;;;;;11.68;5.97;;;7.30;99.90;;;;;;5112436;28;20032;-63
2023/12/14 08:00:22;;;;;;;12.40;5.70;;;7.30;99.90;;;;;;5111209;28;20024;-63
2023/12/14 08:02:48;;;;;;;13.25;5.55;;;7.30;99.90;;;;;;5116231;28;20027;-62
2023/12/14 08:05:13;;;;;;;11.55;5.88;;;7.30;99.90;;;;;;5116382;28;20130;-63
2023/12/14 08:07:39;;;;;;;11.85;6.00;;;7.30;99.90;;;;;;5116363;28;20020;-63
2023/12/14 08:10:05;;;;;;;14.95;5.90;;;7.30;99.90;;;;;;5116505;28;20522;-64
2023/12/14 08:12:31;;;;;;;14.35;6.03;;;7.30;99.90;;;;;;5116458;28;20043;-62
2023/12/14 08:14:56;;;;;;;14.77;6.35;;;7.40;99.90;;;;;;5116288;28;20031;-63
2023/12/14 08:17:22;;;;;;;12.77;5.90;;;7.40;99.90;;;;;;5116185;28;20028;-63
2023/12/14 08:19:47;;;;;;;13.70;5.72;;;7.40;99.90;;;;;;5116094;28;20043;-62
2023/12/14 08:22:15;;;;;;;10.65;5.45;;;7.40;99.90;;;;;;5116043;28;20020;-63
2023/12/14 08:24:41;;;;;;;13.25;5.40;;;7.40;99.90;;;;;;5116044;28;20363;-63
2023/12/14 08:27:07;;;;;;;13.30;5.70;;;7.30;99.90;;;;;;5115923;28;20065;-64
2023/12/14 08:29:33;;;;;;;14.68;5.70;;;7.30;99.90;;;;;;5115908;28;20444;-63
2023/12/14 08:31:59;;;;;;;13.73;6.13;;;7.40;99.90;;;;;;5114926;28;20032;-62
2023/12/14 08:34:28;;;;;;;11.05;5.32;;;7.40;99.90;;;;;;5115811;28;20050;-64
2023/12/14 08:36:54;;;;;;;11.73;5.68;;;7.40;99.90;;;;;;5115905;28;20072;-64
2023/12/14 08:39:20;;;;;;;12.75;6.18;;;7.40;99.90;;;;;;5115827;28;20025;-63
2023/12/14 08:41:46;;;;;;;12.00;5.80;;;7.40;99.90;;;;;;5115821;28;20295;-63
2023/12/14 08:44:14;;;;;;;13.80;5.80;;;7.40;99.90;;;;;;5115639;28;20043;-63
2023/12/14 08:46:45;;;;;;;11.10;5.60;;;7.40;99.90;;;;;;5115566;28;20039;-62
2023/12/14 08:49:12;;;;;;;11.63;5.15;;;7.40;99.90;;;;;;5115599;28;20610;-62
2023/12/14 08:51:38;;;;;;;13.07;6.05;;;7.40;99.90;;;;;;5115565;28;20055;-62
2023/12/14 08:54:04;;;;;;;11.15;5.35;;;7.50;99.90;;;;;;5115322;28;20036;-63
2023/12/14 08:56:30;;;;;;;13.45;6.15;;;7.50;99.90;;;;;;5115452;28;20057;-63
2023/12/14 08:58:55;;;;;;;12.13;5.70;;;7.50;99.90;;;;;;5115394;28;20529;-63
2023/12/14 09:01:21;;;;;;;14.27;5.40;;;7.50;99.90;;;;;;5115217;28;20084;-63
2023/12/14 09:03:47;;;;;;;12.75;6.10;;;7.50;99.90;;;;;;5115395;28;20060;-62
2023/12/14 09:06:14;;;;;;;11.23;5.38;;;7.50;99.90;;;;;;5115343;28;20031;-63
2023/12/14 09:08:40;;;;;;;12.40;5.35;;;7.50;99.90;;;;;;5115176;28;20089;-64
2023/12/14 09:11:06;;;;;;;9.40;5.05;;;7.50;99.90;;;;;;5115238;28;20028;-63
2023/12/14 09:13:32;;;;;;;11.93;5.45;;;7.40;99.90;;;;;;5114191;28;20047;-62
2023/12/14 09:15:57;;;;;;;12.90;5.22;;;7.30;99.90;;;;;;5115131;28;20028;-62
2023/12/14 09:18:23;;;;;;;12.18;4.95;;;7.30;99.90;;;;;;5115153;28;20030;-61
2023/12/14 09:20:50;;;;;;;12.73;5.50;;;7.30;99.90;;;;;;5114950;28;20012;-62
2023/12/14 09:23:16;;;;;;;11.15;5.25;;;7.30;99.90;;;;;;5114867;28;20044;-63
2023/12/14 09:25:42;;;;;;;10.02;5.05;;;7.30;99.90;;;;;;5114949;28;20031;-63
2023/12/14 09:28:07;;;;;;;12.52;5.20;;;7.20;99.90;;;;;;5114942;28;20385;-62
2023/12/14 09:30:33;;;;;;;9.73;4.90;;;7.20;99.90;;;;;;5114664;28;20032;-62
2023/12/14 09:32:59;;;;;;;10.35;4.38;;;7.20;99.90;;;;;;5114807;28;20028;-61
2023/12/14 09:35:24;;;;;;;11.88;4.80;;;7.20;99.90;;;;;;5114656;28;20063;-64
2023/12/14 09:37:50;;;;;;;12.68;4.57;;;7.20;99.90;;;;;;5114605;28;20040;-63
2023/12/14 09:40:19;;;;;;;11.18;5.00;;;7.20;99.90;;;;;;5114605;28;20024;-61
2023/12/14 09:42:45;;;;;;;11.15;5.00;;;7.20;99.90;;;;;;5114489;28;20024;-63
2023/12/14 09:45:11;;;;;;;12.80;5.07;;;7.10;99.90;;;;;;5114481;28;20024;-64
2023/12/14 09:47:38;;;;;;;10.35;4.80;;;7.10;99.90;;;;;;5114451;28;20028;-63
2023/12/14 09:50:05;;;;;;;10.98;5.00;;;7.20;99.90;;;;;;5114448;28;20032;-62
2023/12/14 09:52:31;;;;;;;9.93;5.15;;;7.20;99.90;;;;;;5114323;28;20029;-62
2023/12/14 09:54:56;;;;;;;11.35;5.13;;;7.20;99.90;;;;;;5114217;28;20024;-62
2023/12/14 09:57:23;;;;;;;12.40;5.18;;;7.30;99.90;;;;;;5113293;28;20034;-62
2023/12/14 09:59:55;;;;;;;14.63;5.57;;;7.20;99.90;;;;;;5114051;28;20027;-62
2023/12/14 10:02:26;;;;;;;12.27;5.07;;;7.20;99.90;;;;;;5114232;28;20103;-62
2023/12/14 10:04:52;;;;;;;11.85;5.32;;;7.20;99.90;;;;;;5114186;28;20020;-63
2023/12/14 10:07:19;;;;;;;11.85;5.07;;;7.10;99.90;;;;;;5113972;28;20039;-63
2023/12/14 10:09:45;;;;;;;12.43;4.97;;;7.10;99.90;;;;;;5114250;28;20069;-61
2023/12/14 10:12:11;;;;;;;11.43;5.13;;;7.10;99.90;;;;;;5114024;28;20024;-61
2023/12/14 10:14:37;;;;;;;12.15;5.00;;;7.10;99.90;;;;;;5114005;28;20024;-63
2023/12/14 10:17:21;;;;;;;12.40;4.75;;;7.10;99.90;;;;;;5113977;28;20066;-62
2023/12/14 10:19:47;;;;;;;10.45;4.75;;;7.10;99.90;;;;;;5113853;28;20028;-63
2023/12/14 10:22:19;;;;;;;10.40;4.78;;;7.10;99.90;;;;;;5113816;28;20051;-63
2023/12/14 10:24:47;;;;;;;9.73;4.60;;;7.10;99.90;;;;;;5113885;28;20024;-64
2023/12/14 10:27:15;;;;;;;10.18;4.82;;;7.00;99.90;;;;;;5113728;28;20016;-62
2023/12/14 10:29:41;;;;;;;10.25;4.63;;;7.10;99.90;;;;;;5113497;28;20053;-63
2023/12/14 10:32:08;;;;;;;11.50;4.63;;;7.10;99.90;;;;;;5113531;28;20028;-63
2023/12/14 10:34:39;;;;;;;9.70;5.15;;;7.10;99.90;;;;;;5113582;28;20385;-63
2023/12/14 10:37:05;;;;;;;12.02;5.20;;;7.10;99.90;;;;;;5113528;28;20020;-63
2023/12/14 10:39:37;;;;;;;11.85;4.88;;;7.10;99.90;;;;;;5113616;28;20071;-63
2023/12/14 10:42:04;;;;;;;12.48;5.45;;;7.10;99.90;;;;;;5113477;28;20409;-62
2023/12/14 10:44:35;;;;;;;11.50;4.82;;;7.10;99.90;;;;;;5113242;28;20044;-62
2023/12/14 10:47:02;;;;;;;10.50;5.20;;;7.20;99.90;;;;;;5113322;28;20081;-62
2023/12/14 10:49:29;;;;;;;10.68;4.88;;;7.20;99.90;;;;;;5113374;28;20494;-62
2023/12/14 10:51:57;;;;;;;8.60;4.30;;;7.20;99.90;;;;;;5113276;28;20054;-62
2023/12/14 10:54:25;;;;;;;10.75;5.15;;;7.10;99.90;;;;;;5113233;28;20113;-61
2023/12/14 10:56:58;;;;;;;10.18;5.07;;;7.10;99.90;;;;;;5113096;28;20098;-65
2023/12/14 10:59:26;;;;;;;9.82;4.80;;;7.10;99.90;;;;;;5092647;28;20025;-64
2023/12/14 11:01:55;;;;;;;8.90;4.78;;;7.10;99.90;;;;;;5092817;28;20058;-62
2023/12/14 11:04:27;;;;;;;9.25;4.80;;;7.10;99.90;;;;;;5091904;28;20063;-63
2023/12/14 11:06:54;;;;;;;12.43;5.32;;;7.10;99.90;;;;;;5092736;28;20035;-63
2023/12/14 11:09:23;;;;;;;10.35;4.60;;;7.10;99.90;;;;;;5092658;28;20029;-64
2023/12/14 11:11:58;;;;;;;11.00;4.50;;;7.20;99.90;;;;;;5092082;28;20035;-65
2023/12/14 11:14:25;;;;;;;11.43;4.97;;;7.20;99.90;;;;;;5091894;28;20029;-62
2023/12/14 11:16:55;;;;;;;13.55;5.35;;;7.10;99.90;;;;;;5092465;28;20092;-62
2023/12/14 11:19:24;;;;;;;9.48;4.30;;;7.10;99.90;;;;;;5091617;28;20043;-61
2023/12/14 11:22:08;;;;;;;10.95;5.40;;;7.10;99.90;;;;;;5091435;28;20017;-62
2023/12/14 11:24:37;;;;;;;9.45;5.03;;;7.10;99.90;;;;;;5092405;28;20028;-62
2023/12/14 11:27:09;;;;;;;8.40;4.43;;;7.00;99.90;;;;;;5092473;28;20020;-63
2023/12/14 11:29:37;;;;;;;12.68;4.95;;;7.00;99.90;;;;;;5092401;28;20033;-63
2023/12/14 11:32:03;;;;;;;10.02;5.28;;;7.00;99.90;;;;;;5092440;28;20016;-62
2023/12/14 11:34:29;;;;;;;10.43;5.20;;;7.00;99.90;;;;;;5091358;28;20086;-62
2023/12/14 11:36:55;;;;;;;10.73;5.35;;;7.00;99.90;;;;;;5091751;28;20025;-62
2023/12/14 11:39:21;;;;;;;11.95;4.88;;;7.00;99.90;;;;;;5092355;28;20036;-62
2023/12/14 11:42:19;;;;;;;13.32;4.82;;;7.00;99.90;;;;;;5092342;28;20021;-62
2023/12/14 11:44:45;;;;;;;10.40;5.63;;;7.00;99.90;;;;;;5080136;28;20409;-62
2023/12/14 11:47:11;;;;;;;9.40;4.82;;;7.00;99.90;;;;;;5092224;28;20025;-62
2023/12/14 11:49:36;;;;;;;11.10;5.60;;;7.00;99.90;;;;;;5092311;28;20039;-63
2023/12/14 11:52:04;;;;;;;11.57;5.38;;;7.00;99.90;;;;;;5092294;28;20027;-61
2023/12/14 11:54:30;;;;;;;11.40;4.75;;;7.00;99.90;;;;;;5092208;28;20025;-62
2023/12/14 11:56:55;;;;;;;12.65;5.75;;;6.90;99.90;;;;;;5092268;28;20035;-63
2023/12/14 11:59:21;;;;;;;11.00;5.05;;;6.90;99.90;;;;;;5090491;28;20040;-63
2023/12/14 12:02:00;;;;;;;10.45;5.28;;;6.90;99.90;;;;;;5091738;28;20032;-63
2023/12/14 12:04:27;;;;;;;11.10;5.38;;;6.90;99.90;;;;;;5091966;28;20021;-62
2023/12/14 12:07:01;;;;;;;11.88;5.95;;;6.90;99.90;;;;;;5091783;28;20044;-63
2023/12/14 12:09:42;;;;;;;11.75;5.22;;;6.80;99.90;;;;;;5091929;28;20040;-62
2023/12/14 12:12:09;;;;;;;11.65;5.20;;;6.90;99.90;;;;;;5100842;28;20024;-63
2023/12/14 12:14:36;;;;;;;12.45;5.15;;;6.80;99.90;;;;;;5110657;28;20020;-61
2023/12/14 12:17:04;;;;;;;11.98;5.38;;;6.80;99.90;;;;;;5111683;28;20016;-61
2023/12/14 12:19:30;;;;;;;11.07;5.35;;;6.80;99.90;;;;;;5111835;28;20031;-63
2023/12/14 12:21:56;;;;;;;11.70;5.35;;;6.90;99.90;;;;;;5111170;28;20024;-62
2023/12/14 12:24:22;;;;;;;10.30;4.43;;;7.00;99.90;;;;;;5112175;28;20091;-63
2023/12/14 12:26:47;;;;;;;9.57;5.05;;;6.90;99.90;;;;;;5111106;28;20034;-63
2023/12/14 12:29:13;;;;;;;11.95;5.45;;;7.00;99.90;;;;;;5112192;28;20434;-63
2023/12/14 12:31:39;;;;;;;10.88;4.80;;;6.90;99.90;;;;;;5111905;28;20054;-63
2023/12/14 12:34:05;;;;;;;12.32;5.20;;;7.00;99.90;;;;;;5112050;28;20032;-61
2023/12/14 12:36:31;;;;;;;13.48;5.47;;;6.90;99.90;;;;;;5112072;28;20028;-62
2023/12/14 12:38:56;;;;;;;12.05;5.18;;;6.90;99.90;;;;;;5112156;28;20110;-63
2023/12/14 12:41:22;;;;;;;10.70;4.63;;;7.00;99.90;;;;;;5110838;28;20036;-63
2023/12/14 12:43:48;;;;;;;11.23;5.07;;;7.00;99.90;;;;;;5111783;28;20090;-62